createdAt,value
2017-10-08T00:00:47.998Z,9.79
2017-10-08T00:03:15.491Z,9.74
2017-10-08T00:05:43.002Z,9.74
2017-10-08T00:08:10.520Z,9.72
2017-10-08T00:10:38.071Z,9.73
2017-10-08T00:13:05.584Z,9.74
2017-10-08T00:15:33.082Z,9.75
2017-10-08T00:18:00.584Z,9.75
2017-10-08T00:20:28.101Z,9.71
2017-10-08T00:22:55.606Z,9.58
2017-10-08T00:25:23.107Z,9.73
2017-10-08T00:27:50.615Z,9.64
2017-10-08T00:30:18.111Z,9.66
2017-10-08T00:32:45.613Z,9.80
2017-10-08T00:35:13.136Z,9.77
2017-10-08T00:37:40.650Z,9.74
2017-10-08T00:40:08.289Z,9.75
2017-10-08T00:42:35.804Z,9.75
2017-10-08T00:45:03.303Z,9.70
2017-10-08T00:47:30.819Z,9.76
2017-10-08T00:49:58.341Z,9.74
2017-10-08T00:52:25.902Z,9.60
2017-10-08T00:54:53.400Z,9.72
2017-10-08T00:57:20.920Z,9.67
2017-10-08T00:59:48.472Z,9.54
2017-10-08T01:02:15.985Z,9.78
2017-10-08T01:04:43.498Z,9.61
2017-10-08T01:07:10.995Z,9.65
2017-10-08T01:09:38.488Z,9.57
2017-10-08T01:12:06.015Z,9.47
2017-10-08T01:14:33.524Z,9.48
2017-10-08T01:17:01.082Z,9.50
2017-10-08T01:19:28.590Z,9.49
2017-10-08T01:21:56.092Z,9.45
2017-10-08T01:24:23.592Z,9.46
2017-10-08T01:26:51.087Z,9.63
2017-10-08T01:29:18.587Z,9.55
2017-10-08T01:31:46.095Z,9.50
2017-10-08T01:34:13.632Z,9.57
2017-10-08T01:36:41.156Z,9.50
2017-10-08T01:39:08.652Z,9.63
2017-10-08T01:41:36.151Z,9.54
2017-10-08T01:44:03.668Z,9.65
2017-10-08T01:46:31.168Z,9.55
2017-10-08T01:48:58.673Z,9.54
2017-10-08T01:51:26.167Z,9.56
2017-10-08T01:53:53.675Z,9.68
2017-10-08T01:56:21.178Z,9.61
2017-10-08T01:58:48.743Z,9.60
2017-10-08T02:01:16.239Z,9.59
2017-10-08T02:03:43.731Z,9.58
2017-10-08T02:06:11.235Z,9.72
2017-10-08T02:08:38.723Z,9.71
2017-10-08T02:11:06.235Z,9.78
2017-10-08T02:13:33.735Z,9.64
2017-10-08T02:16:01.275Z,9.63
2017-10-08T02:18:28.791Z,9.72
2017-10-08T02:20:56.315Z,9.71
2017-10-08T02:23:23.836Z,9.71
2017-10-08T02:25:51.342Z,9.68
2017-10-08T02:28:18.854Z,9.65
2017-10-08T02:30:46.351Z,9.74
2017-10-08T02:33:13.943Z,9.74
2017-10-08T02:35:41.475Z,9.70
2017-10-08T02:38:08.995Z,9.69
2017-10-08T02:40:36.545Z,9.76
2017-10-08T02:43:04.051Z,9.74
2017-10-08T02:45:31.556Z,9.70
2017-10-08T02:47:59.047Z,9.65
2017-10-08T02:50:26.547Z,9.68
2017-10-08T02:52:54.052Z,9.67
2017-10-08T02:55:21.575Z,9.70
2017-10-08T02:57:49.083Z,9.79
2017-10-08T03:00:16.582Z,9.75
2017-10-08T03:02:44.084Z,9.64
2017-10-08T03:05:11.607Z,9.80
2017-10-08T03:07:39.107Z,9.78
2017-10-08T03:10:06.607Z,9.69
2017-10-08T03:12:34.132Z,9.61
2017-10-08T03:15:01.632Z,9.68
2017-10-08T03:17:29.134Z,9.70
2017-10-08T03:19:56.656Z,9.80
2017-10-08T03:22:24.164Z,9.68
2017-10-08T03:24:51.693Z,9.80
2017-10-08T03:27:19.204Z,9.72
2017-10-08T03:29:46.800Z,9.72
2017-10-08T03:32:14.318Z,9.66
2017-10-08T03:34:41.818Z,9.62
2017-10-08T03:37:09.320Z,9.66
2017-10-08T03:39:36.818Z,9.56
2017-10-08T03:42:04.334Z,9.63
2017-10-08T03:44:31.837Z,9.54
2017-10-08T03:46:59.368Z,9.46
2017-10-08T03:49:26.858Z,9.53
2017-10-08T03:51:54.369Z,9.55
2017-10-08T03:54:21.872Z,9.44
2017-10-08T03:56:49.368Z,9.52
2017-10-08T03:59:16.869Z,9.52
2017-10-08T04:01:44.379Z,9.48
2017-10-08T04:04:11.874Z,9.48
2017-10-08T04:06:39.414Z,9.55
2017-10-08T04:09:06.916Z,9.51
2017-10-08T04:11:34.418Z,9.56
2017-10-08T04:14:01.918Z,9.42
2017-10-08T04:16:29.418Z,9.49
2017-10-08T04:18:56.944Z,9.53
2017-10-08T04:21:24.462Z,9.46
2017-10-08T04:23:51.959Z,9.52
2017-10-08T04:26:19.459Z,9.63
2017-10-08T04:28:46.962Z,9.79
2017-10-08T04:31:14.460Z,9.76
2017-10-08T04:33:41.964Z,9.64
2017-10-08T04:36:09.467Z,9.65
2017-10-08T04:38:36.967Z,9.85
2017-10-08T04:41:04.466Z,9.73
2017-10-08T04:43:31.962Z,9.62
2017-10-08T04:45:59.464Z,9.86
2017-10-08T04:48:26.975Z,9.76
2017-10-08T04:50:54.481Z,9.64
2017-10-08T04:53:21.986Z,9.71
2017-10-08T04:55:49.502Z,9.62
2017-10-08T04:58:17.020Z,9.76
2017-10-08T05:00:44.546Z,9.77
2017-10-08T05:03:12.065Z,9.76
2017-10-08T05:05:39.566Z,9.73
2017-10-08T05:08:07.066Z,9.67
2017-10-08T05:10:34.659Z,9.83
2017-10-08T05:13:02.186Z,9.85
2017-10-08T05:15:29.690Z,9.77
2017-10-08T05:17:57.199Z,9.71
2017-10-08T05:20:24.711Z,9.69
2017-10-08T05:22:52.222Z,9.69
2017-10-08T05:25:19.735Z,9.77
2017-10-08T05:27:47.246Z,9.80
2017-10-08T05:30:14.746Z,9.73
2017-10-08T05:32:42.247Z,9.65
2017-10-08T05:35:10.603Z,9.64
2017-10-08T05:37:38.125Z,9.73
2017-10-08T05:40:05.645Z,9.62
2017-10-08T05:42:33.138Z,9.64
2017-10-08T05:45:00.640Z,9.79
2017-10-08T05:47:28.134Z,9.68
2017-10-08T05:49:55.662Z,9.74
2017-10-08T05:52:23.168Z,9.76
2017-10-08T05:54:50.692Z,9.86
2017-10-08T05:57:18.213Z,9.96
2017-10-08T05:59:45.706Z,9.86
2017-10-08T06:02:13.210Z,9.86
2017-10-08T06:04:40.734Z,9.77
2017-10-08T06:07:08.273Z,9.81
2017-10-08T06:09:35.775Z,9.79
2017-10-08T06:12:03.287Z,9.75
2017-10-08T06:14:30.799Z,9.77
2017-10-08T06:16:58.294Z,9.79
2017-10-08T06:19:25.826Z,9.90
2017-10-08T06:21:53.333Z,9.89
2017-10-08T06:24:20.850Z,9.78
2017-10-08T06:26:48.355Z,9.79
2017-10-08T06:29:15.872Z,10.03
2017-10-08T06:31:43.383Z,9.84
2017-10-08T06:34:10.895Z,9.79
2017-10-08T06:36:38.437Z,9.85
2017-10-08T06:39:05.943Z,9.90
2017-10-08T06:41:33.536Z,9.97
2017-10-08T06:44:01.047Z,10.04
2017-10-08T06:46:28.564Z,9.99
2017-10-08T06:48:56.059Z,10.12
2017-10-08T06:51:23.578Z,10.23
2017-10-08T06:53:51.117Z,10.39
2017-10-08T06:56:18.619Z,10.43
2017-10-08T06:58:46.127Z,10.35
2017-10-08T07:01:13.631Z,10.36
2017-10-08T07:03:41.146Z,10.42
2017-10-08T07:06:08.650Z,10.51
2017-10-08T07:08:36.162Z,10.42
2017-10-08T07:11:03.659Z,10.42
2017-10-08T07:13:31.183Z,10.39
2017-10-08T07:15:58.809Z,10.54
2017-10-08T07:18:26.322Z,10.53
2017-10-08T07:20:53.828Z,10.58
2017-10-08T07:23:21.355Z,10.47
2017-10-08T07:25:48.860Z,10.58
2017-10-08T07:28:16.372Z,10.66
2017-10-08T07:30:43.884Z,10.61
2017-10-08T07:33:11.392Z,10.65
2017-10-08T07:35:38.894Z,10.65
2017-10-08T07:38:06.399Z,10.83
2017-10-08T07:40:33.931Z,10.80
2017-10-08T07:43:01.444Z,10.65
2017-10-08T07:45:28.957Z,10.72
2017-10-08T07:47:56.503Z,10.86
2017-10-08T07:50:24.024Z,10.95
2017-10-08T07:52:51.556Z,10.95
2017-10-08T07:55:19.063Z,10.96
2017-10-08T07:57:46.584Z,11.09
2017-10-08T08:00:14.090Z,11.23
2017-10-08T08:02:41.627Z,11.47
2017-10-08T08:05:09.143Z,11.42
2017-10-08T08:07:36.648Z,11.27
2017-10-08T08:10:04.155Z,11.43
2017-10-08T08:12:31.847Z,11.45
2017-10-08T08:14:59.419Z,11.65
2017-10-08T08:17:26.941Z,11.88
2017-10-08T08:19:54.438Z,11.85
2017-10-08T08:22:21.942Z,11.98
2017-10-08T08:24:49.476Z,11.94
2017-10-08T08:27:16.997Z,11.94
2017-10-08T08:29:44.499Z,12.06
2017-10-08T08:32:12.009Z,12.09
2017-10-08T08:34:39.535Z,12.01
2017-10-08T08:37:07.050Z,12.24
2017-10-08T08:39:34.555Z,12.22
2017-10-08T08:42:02.059Z,11.99
2017-10-08T08:44:29.614Z,12.17
2017-10-08T08:46:57.133Z,12.19
2017-10-08T08:49:24.640Z,12.38
2017-10-08T08:51:52.164Z,12.10
2017-10-08T08:54:19.675Z,12.13
2017-10-08T08:56:47.191Z,12.13
2017-10-08T08:59:14.727Z,12.07
2017-10-08T09:01:42.244Z,12.50
2017-10-08T09:04:09.747Z,12.57
2017-10-08T09:06:37.293Z,12.81
2017-10-08T09:09:04.830Z,12.52
2017-10-08T09:11:32.363Z,12.76
2017-10-08T09:13:59.872Z,12.78
2017-10-08T09:16:27.374Z,12.87
2017-10-08T09:18:54.927Z,12.91
2017-10-08T09:21:22.450Z,12.74
2017-10-08T09:23:49.961Z,12.76
2017-10-08T09:26:17.476Z,13.23
2017-10-08T09:28:45.009Z,12.89
2017-10-08T09:31:12.532Z,13.35
2017-10-08T09:33:40.054Z,13.10
2017-10-08T09:36:07.588Z,13.09
2017-10-08T09:38:35.129Z,13.01
2017-10-08T09:41:02.751Z,13.10
2017-10-08T09:43:30.294Z,13.01
2017-10-08T09:45:57.811Z,13.06
2017-10-08T09:48:25.342Z,13.17
2017-10-08T09:50:52.904Z,13.05
2017-10-08T09:53:20.419Z,13.09
2017-10-08T09:55:47.988Z,13.23
2017-10-08T09:58:15.518Z,13.37
2017-10-08T10:00:43.042Z,13.51
2017-10-08T10:03:10.554Z,13.30
2017-10-08T10:05:38.066Z,13.37
2017-10-08T10:08:05.578Z,13.28
2017-10-08T10:10:33.134Z,13.07
2017-10-08T10:13:00.711Z,12.97
2017-10-08T10:15:28.221Z,13.53
2017-10-08T10:17:55.755Z,13.80
2017-10-08T10:20:23.296Z,14.64
2017-10-08T10:22:50.860Z,14.77
2017-10-08T10:25:18.365Z,14.57
2017-10-08T10:27:45.902Z,14.94
2017-10-08T10:30:13.432Z,14.93
2017-10-08T10:32:40.976Z,14.58
2017-10-08T10:35:08.633Z,14.64
2017-10-08T10:37:36.160Z,14.78
2017-10-08T10:40:03.693Z,14.43
2017-10-08T10:42:31.233Z,14.54
2017-10-08T10:44:58.746Z,14.70
2017-10-08T10:47:26.285Z,15.16
2017-10-08T10:49:53.816Z,15.47
2017-10-08T10:52:21.332Z,15.20
2017-10-08T10:54:48.837Z,16.33
2017-10-08T10:57:16.347Z,17.42
2017-10-08T10:59:43.876Z,21.77
2017-10-08T11:02:11.414Z,21.83
2017-10-08T11:04:38.947Z,22.92
2017-10-08T11:07:06.458Z,24.24
2017-10-08T11:09:33.983Z,24.71
2017-10-08T11:12:01.511Z,24.41
2017-10-08T11:14:29.030Z,25.88
2017-10-08T11:16:56.540Z,26.67
2017-10-08T11:19:24.065Z,23.77
2017-10-08T11:21:51.596Z,24.26
2017-10-08T11:24:19.120Z,23.10
2017-10-08T11:26:46.662Z,21.49
2017-10-08T11:29:14.229Z,20.63
2017-10-08T11:31:41.746Z,19.03
2017-10-08T11:34:09.266Z,19.39
2017-10-08T11:36:36.803Z,16.77
2017-10-08T11:39:04.324Z,16.78
2017-10-08T11:41:31.856Z,17.21
2017-10-08T11:43:59.385Z,16.60
2017-10-08T11:46:26.915Z,16.48
2017-10-08T11:48:54.578Z,16.15
2017-10-08T11:51:22.093Z,16.40
2017-10-08T11:53:51.220Z,16.40
2017-10-08T11:56:18.772Z,16.28
2017-10-08T11:58:46.293Z,15.94
2017-10-08T12:01:13.819Z,16.20
2017-10-08T12:03:41.331Z,16.03
2017-10-08T12:06:08.855Z,15.85
2017-10-08T12:08:36.365Z,15.84
2017-10-08T12:11:03.913Z,15.79
2017-10-08T12:13:31.446Z,15.38
2017-10-08T12:15:58.981Z,15.32
2017-10-08T12:18:26.491Z,15.09
2017-10-08T12:20:54.011Z,14.85
2017-10-08T12:23:21.535Z,14.64
2017-10-08T12:25:49.054Z,14.55
2017-10-08T12:28:16.611Z,14.26
2017-10-08T12:30:44.166Z,14.39
2017-10-08T12:33:11.695Z,13.97
2017-10-08T12:35:39.219Z,14.28
2017-10-08T12:38:06.726Z,15.07
2017-10-08T12:40:34.242Z,14.76
2017-10-08T12:43:01.772Z,14.96
2017-10-08T12:45:29.326Z,15.32
2017-10-08T12:47:56.840Z,14.74
2017-10-08T12:50:24.384Z,14.67
2017-10-08T12:52:51.926Z,14.81
2017-10-08T12:55:19.451Z,15.05
2017-10-08T12:57:46.971Z,15.34
2017-10-08T13:00:14.493Z,17.97
2017-10-08T13:02:42.018Z,20.90
2017-10-08T13:05:09.535Z,24.45
2017-10-08T13:07:37.092Z,24.05
2017-10-08T13:10:04.614Z,21.44
2017-10-08T13:12:32.139Z,19.13
2017-10-08T13:14:59.668Z,18.16
2017-10-08T13:17:27.204Z,16.27
2017-10-08T13:19:54.747Z,16.03
2017-10-08T13:22:22.282Z,15.96
2017-10-08T13:24:49.807Z,15.68
2017-10-08T13:27:17.324Z,15.42
2017-10-08T13:29:44.855Z,15.43
2017-10-08T13:32:12.366Z,15.10
2017-10-08T13:34:40.018Z,14.72
2017-10-08T13:37:07.539Z,14.64
2017-10-08T13:39:35.064Z,14.63
2017-10-08T13:42:02.571Z,14.87
2017-10-08T13:44:30.083Z,15.25
2017-10-08T13:46:57.660Z,15.65
2017-10-08T13:49:25.170Z,15.65
2017-10-08T13:51:52.680Z,15.91
2017-10-08T13:54:20.196Z,16.08
2017-10-08T13:56:47.708Z,15.73
2017-10-08T13:59:15.237Z,15.96
2017-10-08T14:01:42.856Z,15.89
2017-10-08T14:04:10.374Z,15.73
2017-10-08T14:06:37.903Z,16.09
2017-10-08T14:09:05.487Z,15.96
2017-10-08T14:11:33.003Z,15.58
2017-10-08T14:14:00.525Z,15.47
2017-10-08T14:16:28.105Z,15.24
2017-10-08T14:18:55.631Z,15.42
2017-10-08T14:21:23.199Z,15.17
2017-10-08T14:23:50.754Z,15.14
2017-10-08T14:26:18.289Z,15.01
2017-10-08T14:28:45.811Z,14.92
2017-10-08T14:31:13.379Z,14.99
2017-10-08T14:33:40.931Z,14.88
2017-10-08T14:36:08.447Z,14.85
2017-10-08T14:38:35.980Z,15.01
2017-10-08T14:41:03.487Z,14.78
2017-10-08T14:43:30.991Z,14.63
2017-10-08T14:45:58.507Z,14.82
2017-10-08T14:48:26.036Z,14.81
2017-10-08T14:50:53.544Z,14.88
2017-10-08T14:53:21.076Z,14.74
2017-10-08T14:55:48.633Z,14.84
2017-10-08T14:58:16.150Z,14.93
2017-10-08T15:00:43.708Z,14.82
2017-10-08T15:03:11.311Z,14.92
2017-10-08T15:05:38.829Z,15.26
2017-10-08T15:08:06.359Z,15.30
2017-10-08T15:10:33.883Z,15.00
2017-10-08T15:13:01.391Z,15.10
2017-10-08T15:15:31.305Z,14.94
2017-10-08T15:17:58.977Z,15.18
2017-10-08T15:20:26.487Z,14.94
2017-10-08T15:22:53.998Z,15.00
2017-10-08T15:25:21.528Z,14.95
2017-10-08T15:27:49.043Z,14.86
2017-10-08T15:30:16.579Z,14.89
2017-10-08T15:32:44.099Z,14.76
2017-10-08T15:35:11.641Z,14.39
2017-10-08T15:37:39.151Z,14.52
2017-10-08T15:40:06.789Z,14.56
2017-10-08T15:42:34.286Z,14.35
2017-10-08T15:45:01.792Z,14.53
2017-10-08T15:47:29.319Z,14.45
2017-10-08T15:49:56.854Z,14.19
2017-10-08T15:52:24.421Z,14.25
2017-10-08T15:54:51.971Z,14.64
2017-10-08T15:57:19.488Z,14.65
2017-10-08T15:59:47.109Z,14.72
2017-10-08T16:02:14.624Z,14.55
2017-10-08T16:04:42.158Z,14.37
2017-10-08T16:07:09.679Z,14.43
2017-10-08T16:09:37.208Z,14.12
2017-10-08T16:12:04.748Z,13.91
2017-10-08T16:14:32.285Z,14.03
2017-10-08T16:16:59.821Z,13.77
2017-10-08T16:19:27.351Z,13.92
2017-10-08T16:21:54.884Z,13.85
2017-10-08T16:24:22.496Z,13.73
2017-10-08T16:26:50.026Z,13.70
2017-10-08T16:29:17.530Z,13.64
2017-10-08T16:31:45.113Z,13.60
2017-10-08T16:34:12.627Z,13.47
2017-10-08T16:36:40.165Z,13.40
2017-10-08T16:39:07.716Z,13.29
2017-10-08T16:41:35.226Z,13.31
2017-10-08T16:44:02.728Z,13.25
2017-10-08T16:46:30.237Z,13.22
2017-10-08T16:48:57.811Z,13.28
2017-10-08T16:51:25.328Z,13.36
2017-10-08T16:53:52.841Z,13.70
2017-10-08T16:56:20.379Z,13.50
2017-10-08T16:58:47.919Z,13.15
2017-10-08T17:01:15.437Z,13.34
2017-10-08T17:03:42.947Z,13.59
2017-10-08T17:06:10.476Z,13.57
2017-10-08T17:08:38.010Z,13.31
2017-10-08T17:11:05.536Z,13.25
2017-10-08T17:13:33.036Z,13.29
2017-10-08T17:16:00.575Z,13.32
2017-10-08T17:18:28.105Z,13.18
2017-10-08T17:20:55.640Z,12.98
2017-10-08T17:23:23.147Z,13.02
2017-10-08T17:25:50.651Z,13.01
2017-10-08T17:28:18.187Z,13.29
2017-10-08T17:30:45.700Z,13.01
2017-10-08T17:33:13.221Z,13.16
2017-10-08T17:35:40.764Z,13.01
2017-10-08T17:38:08.297Z,13.16
2017-10-08T17:40:35.802Z,13.18
2017-10-08T17:43:03.459Z,13.29
2017-10-08T17:45:30.990Z,13.00
2017-10-08T17:47:58.513Z,12.99
2017-10-08T17:50:26.046Z,12.93
2017-10-08T17:52:53.580Z,12.84
2017-10-08T17:55:21.101Z,13.00
2017-10-08T17:57:48.708Z,13.02
2017-10-08T18:00:16.233Z,12.85
2017-10-08T18:02:43.735Z,13.08
2017-10-08T18:05:11.263Z,13.14
2017-10-08T18:07:38.804Z,12.90
2017-10-08T18:10:06.350Z,12.81
2017-10-08T18:12:33.906Z,12.66
2017-10-08T18:15:01.431Z,12.66
2017-10-08T18:17:28.951Z,12.69
2017-10-08T18:19:56.545Z,12.66
2017-10-08T18:22:24.068Z,12.40
2017-10-08T18:24:51.595Z,12.28
2017-10-08T18:27:19.115Z,12.19
2017-10-08T18:29:46.642Z,12.13
2017-10-08T18:32:14.288Z,12.24
2017-10-08T18:34:41.808Z,12.23
2017-10-08T18:37:09.440Z,12.21
2017-10-08T18:39:36.970Z,11.99
2017-10-08T18:42:04.463Z,12.22
2017-10-08T18:44:31.978Z,11.85
2017-10-08T18:46:59.505Z,11.72
2017-10-08T18:49:27.028Z,11.80
2017-10-08T18:51:54.551Z,11.93
2017-10-08T18:54:22.093Z,11.81
2017-10-08T18:56:49.612Z,11.80
2017-10-08T18:59:17.149Z,11.91
2017-10-08T19:01:44.677Z,11.83
2017-10-08T19:04:12.179Z,11.90
2017-10-08T19:06:39.725Z,11.89
2017-10-08T19:09:07.264Z,12.06
2017-10-08T19:11:34.842Z,11.96
2017-10-08T19:14:02.390Z,11.77
2017-10-08T19:16:29.936Z,11.98
2017-10-08T19:18:57.474Z,12.17
2017-10-08T19:21:25.025Z,11.94
2017-10-08T19:23:52.532Z,11.96
2017-10-08T19:26:20.047Z,11.98
2017-10-08T19:28:47.604Z,11.88
2017-10-08T19:31:15.108Z,12.14
2017-10-08T19:33:42.640Z,11.81
2017-10-08T19:36:10.154Z,11.61
2017-10-08T19:38:37.703Z,11.58
2017-10-08T19:41:05.230Z,11.68
2017-10-08T19:43:32.758Z,11.52
2017-10-08T19:46:00.261Z,11.47
2017-10-08T19:48:27.803Z,11.52
2017-10-08T19:50:55.335Z,11.50
2017-10-08T19:53:22.927Z,11.45
2017-10-08T19:55:50.447Z,11.27
2017-10-08T19:58:17.967Z,11.33
2017-10-08T20:00:45.578Z,11.51
2017-10-08T20:03:13.113Z,11.59
2017-10-08T20:05:40.663Z,11.76
2017-10-08T20:08:08.171Z,11.80
2017-10-08T20:10:35.710Z,11.84
2017-10-08T20:13:03.231Z,11.85
2017-10-08T20:15:30.764Z,11.92
2017-10-08T20:17:58.285Z,12.08
2017-10-08T20:20:25.833Z,11.98
2017-10-08T20:22:53.352Z,11.91
2017-10-08T20:25:20.855Z,12.01
2017-10-08T20:27:48.397Z,11.97
2017-10-08T20:30:16.867Z,11.95
2017-10-08T20:32:44.385Z,11.75
2017-10-08T20:35:11.902Z,11.75
2017-10-08T20:37:39.435Z,11.83
2017-10-08T20:40:06.971Z,11.67
2017-10-08T20:42:34.495Z,11.71
2017-10-08T20:45:02.039Z,11.75
2017-10-08T20:47:29.582Z,11.81
2017-10-08T20:49:57.090Z,11.74
2017-10-08T20:52:24.611Z,11.61
2017-10-08T20:54:52.152Z,11.64
2017-10-08T20:57:19.663Z,11.66
2017-10-08T20:59:47.213Z,11.66
2017-10-08T21:02:14.764Z,11.87
2017-10-08T21:04:42.286Z,11.86
2017-10-08T21:07:09.837Z,11.84
2017-10-08T21:09:37.347Z,11.79
2017-10-08T21:12:04.872Z,11.80
2017-10-08T21:14:32.439Z,11.66
2017-10-08T21:16:59.978Z,11.57
2017-10-08T21:19:27.608Z,11.53
2017-10-08T21:21:55.113Z,11.45
2017-10-08T21:24:22.723Z,11.56
2017-10-08T21:26:50.261Z,11.66
2017-10-08T21:29:17.767Z,11.68
2017-10-08T21:31:45.326Z,11.60
2017-10-08T21:34:12.961Z,11.78
2017-10-08T21:36:40.471Z,11.77
2017-10-08T21:39:07.993Z,11.68
2017-10-08T21:41:35.497Z,11.46
2017-10-08T21:44:02.999Z,11.44
2017-10-08T21:46:30.507Z,11.22
2017-10-08T21:48:58.022Z,10.99
2017-10-08T21:51:25.545Z,10.95
2017-10-08T21:53:53.094Z,10.94
2017-10-08T21:56:20.599Z,11.00
2017-10-08T21:58:48.137Z,11.11
2017-10-08T22:01:15.647Z,11.16
2017-10-08T22:03:43.163Z,11.14
2017-10-08T22:06:10.711Z,11.03
2017-10-08T22:08:38.244Z,11.10
2017-10-08T22:11:05.829Z,11.07
2017-10-08T22:13:33.348Z,10.79
2017-10-08T22:16:00.894Z,10.77
2017-10-08T22:18:28.402Z,10.72
2017-10-08T22:20:56.075Z,10.77
2017-10-08T22:23:23.597Z,10.77
2017-10-08T22:25:51.223Z,10.83
2017-10-08T22:28:18.760Z,10.87
2017-10-08T22:30:46.264Z,10.87
2017-10-08T22:33:13.791Z,10.98
2017-10-08T22:35:41.359Z,10.85
2017-10-08T22:38:08.882Z,10.76
2017-10-08T22:40:36.408Z,10.73
2017-10-08T22:43:03.913Z,10.80
2017-10-08T22:45:31.426Z,10.93
2017-10-08T22:47:59.745Z,10.96
2017-10-08T22:50:27.250Z,11.09
2017-10-08T22:52:54.775Z,11.13
2017-10-08T22:55:22.284Z,11.19
2017-10-08T22:57:49.774Z,11.18
2017-10-08T23:00:17.270Z,11.13
2017-10-08T23:02:48.669Z,11.23
2017-10-08T23:05:16.178Z,11.25
2017-10-08T23:07:43.678Z,11.23
2017-10-08T23:10:11.202Z,11.25
2017-10-08T23:12:38.742Z,11.26
2017-10-08T23:15:06.268Z,11.28
2017-10-08T23:17:33.770Z,11.18
2017-10-08T23:20:01.314Z,11.21
2017-10-08T23:22:28.848Z,11.18
2017-10-08T23:24:56.362Z,11.14
2017-10-08T23:27:23.881Z,10.98
2017-10-08T23:29:51.384Z,10.85
2017-10-08T23:32:18.885Z,10.88
2017-10-08T23:34:46.420Z,10.80
2017-10-08T23:37:13.918Z,10.85
2017-10-08T23:39:41.419Z,10.89
2017-10-08T23:42:08.940Z,10.97
2017-10-08T23:44:36.477Z,11.01
2017-10-08T23:47:04.013Z,10.89
2017-10-08T23:49:31.520Z,10.83
2017-10-08T23:51:59.031Z,10.86
2017-10-08T23:54:26.584Z,11.01
2017-10-08T23:56:54.074Z,10.95
2017-10-08T23:59:21.603Z,10.92
